Time;durP1;ratioP1;P1;durP2;ratioP2;P2;SDS_P1;SDS_P2;PMS_P1;PMS_P2;Temp;Humidity;BMP_temperature;BMP_pressure;BME280_temperature;BME280_humidity;BME280_pressure;Samples;Min_cycle;Max_cycle;Signal;HPM_P1;HPM_P2
2022/10/01 00:00:11;;;;;;;33.65;19.92;;;;;;;;;;5055912;28;20052;-70
2022/10/01 00:02:39;;;;;;;29.25;18.92;;;;;;;;;;5056145;28;20573;-69
2022/10/01 00:05:09;;;;;;;31.33;18.92;;;;;;;;;;5055652;28;20036;-69
2022/10/01 00:07:42;;;;;;;26.90;18.20;;;;;;;;;;5055923;28;20084;-69
2022/10/01 00:10:08;;;;;;;29.45;19.38;;;;;;;;;;5055924;28;20036;-70
2022/10/01 00:12:33;;;;;;;37.38;20.65;;;;;;;;;;5055994;28;20021;-69
2022/10/01 00:14:59;;;;;;;30.40;19.60;;;;;;;;;;5055479;28;20032;-69
2022/10/01 00:17:24;;;;;;;29.30;18.55;;;;;;;;;;5055965;28;20056;-68
2022/10/01 00:19:50;;;;;;;31.88;19.55;;;;;;;;;;5055619;28;20045;-70
2022/10/01 00:22:17;;;;;;;31.17;19.70;;;;;;;;;;5037711;28;20474;-69
2022/10/01 00:24:44;;;;;;;31.35;19.25;;;;;;;;;;5055595;28;20506;-69
2022/10/01 00:27:09;;;;;;;32.35;19.75;;;;;;;;;;5055166;28;20020;-70
2022/10/01 00:29:35;;;;;;;31.13;19.83;;;;;;;;;;5055981;28;20040;-71
2022/10/01 00:32:00;;;;;;;30.23;20.42;;;;;;;;;;5055276;28;20155;-70
2022/10/01 00:34:27;;;;;;;32.83;20.05;;;;;;;;;;5055402;28;20127;-70
2022/10/01 00:36:52;;;;;;;34.53;21.00;;;;;;;;;;5055273;28;20013;-70
2022/10/01 00:39:18;;;;;;;31.73;20.40;;;;;;;;;;5055572;28;20482;-70
2022/10/01 00:41:43;;;;;;;31.58;20.15;;;;;;;;;;5036725;28;20048;-68
2022/10/01 00:44:27;;;;;;;33.17;20.75;;;;;;;;;;5054954;28;20063;-66
2022/10/01 00:46:54;;;;;;;32.72;20.63;;;;;;;;;;5037190;28;20045;-67
2022/10/01 00:49:23;;;;;;;31.80;19.70;;;;;;;;;;5055373;28;20032;-68
2022/10/01 00:51:54;;;;;;;30.02;18.83;;;;;;;;;;5054935;28;20086;-66
2022/10/01 00:54:29;;;;;;;33.30;21.15;;;;;;;;;;5055027;28;20027;-68
2022/10/01 00:56:56;;;;;;;28.35;19.50;;;;;;;;;;5037185;28;20468;-67
2022/10/01 00:59:21;;;;;;;32.88;20.17;;;;;;;;;;5054996;28;20099;-66
2022/10/01 01:01:47;;;;;;;32.45;20.98;;;;;;;;;;5054888;28;20083;-68
2022/10/01 01:04:15;;;;;;;29.30;19.55;;;;;;;;;;5054575;28;20021;-67
2022/10/01 01:06:42;;;;;;;35.00;21.80;;;;;;;;;;5054877;28;20075;-66
2022/10/01 01:09:08;;;;;;;29.63;18.90;;;;;;;;;;5054689;28;20025;-67
2022/10/01 01:11:44;;;;;;;33.30;19.58;;;;;;;;;;5054485;28;20033;-66
2022/10/01 01:14:16;;;;;;;24.42;16.70;;;;;;;;;;5054661;28;20057;-66
2022/10/01 01:16:48;;;;;;;32.80;19.55;;;;;;;;;;5054721;28;20037;-68
2022/10/01 01:19:17;;;;;;;28.35;18.08;;;;;;;;;;5054081;28;20072;-66
2022/10/01 01:21:44;;;;;;;27.42;18.63;;;;;;;;;;5053373;28;20033;-68
2022/10/01 01:24:48;;;;;;;35.42;20.48;;;;;;;;;;5054462;28;20107;-65
2022/10/01 01:27:25;;;;;;;37.35;21.35;;;;;;;;;;4973533;28;20053;-67
2022/10/01 01:29:56;;;;;;;32.85;21.20;;;;;;;;;;4973803;28;20117;-66
2022/10/01 01:32:24;;;;;;;36.38;22.13;;;;;;;;;;5020315;28;20199;-67
2022/10/01 01:34:50;;;;;;;32.65;20.02;;;;;;;;;;5054332;28;20108;-66
2022/10/01 01:37:18;;;;;;;33.60;20.98;;;;;;;;;;5054127;28;20424;-66
2022/10/01 01:39:46;;;;;;;33.05;20.33;;;;;;;;;;5054477;28;20036;-66
2022/10/01 01:42:38;;;;;;;33.03;19.80;;;;;;;;;;5054357;28;20032;-67
2022/10/01 01:45:08;;;;;;;31.88;19.67;;;;;;;;;;5050064;28;20080;-67
2022/10/01 01:47:34;;;;;;;33.92;20.25;;;;;;;;;;5053742;28;20391;-67
2022/10/01 01:50:01;;;;;;;34.13;20.55;;;;;;;;;;5053735;28;20532;-67
2022/10/01 01:52:28;;;;;;;31.55;20.48;;;;;;;;;;5053586;28;20024;-67
2022/10/01 01:54:53;;;;;;;32.38;20.10;;;;;;;;;;5053878;28;20036;-65
2022/10/01 01:57:19;;;;;;;31.92;20.40;;;;;;;;;;5054108;28;20021;-67
2022/10/01 01:59:45;;;;;;;34.63;20.02;;;;;;;;;;5052552;28;20029;-66
2022/10/01 02:02:34;;;;;;;34.30;20.88;;;;;;;;;;5053911;28;20013;-66
2022/10/01 02:05:06;;;;;;;32.67;20.02;;;;;;;;;;5054019;28;20111;-66
2022/10/01 02:07:43;;;;;;;30.52;19.27;;;;;;;;;;5052501;28;20463;-66
2022/10/01 02:10:09;;;;;;;31.58;19.33;;;;;;;;;;5053764;28;20110;-68
2022/10/01 02:12:43;;;;;;;32.20;19.20;;;;;;;;;;5054067;28;20048;-70
2022/10/01 02:15:16;;;;;;;30.55;19.15;;;;;;;;;;5035768;28;20509;-69
2022/10/01 02:17:51;;;;;;;28.33;18.77;;;;;;;;;;5051141;28;20107;-67
2022/10/01 02:20:26;;;;;;;30.95;19.35;;;;;;;;;;5054033;28;20062;-69
2022/10/01 02:23:10;;;;;;;33.35;20.42;;;;;;;;;;5053700;28;20041;-69
2022/10/01 02:25:40;;;;;;;34.78;21.67;;;;;;;;;;5053709;28;20083;-67
2022/10/01 02:28:08;;;;;;;39.05;22.63;;;;;;;;;;5053665;28;20532;-68
2022/10/01 02:30:34;;;;;;;40.25;23.73;;;;;;;;;;5053223;28;20110;-67
2022/10/01 02:33:02;;;;;;;39.45;22.75;;;;;;;;;;5053666;28;20025;-67
2022/10/01 02:35:29;;;;;;;34.90;21.45;;;;;;;;;;5053739;28;20028;-67
2022/10/01 02:37:56;;;;;;;33.65;20.55;;;;;;;;;;5053301;28;20039;-67
2022/10/01 02:40:26;;;;;;;32.25;20.58;;;;;;;;;;5053379;28;20021;-68
2022/10/01 02:42:54;;;;;;;32.25;19.98;;;;;;;;;;5053462;28;20033;-67
2022/10/01 02:45:23;;;;;;;32.88;21.02;;;;;;;;;;5053364;28;20021;-69
2022/10/01 02:47:51;;;;;;;35.60;20.07;;;;;;;;;;5053501;28;20087;-68
2022/10/01 02:50:17;;;;;;;36.55;20.83;;;;;;;;;;5053402;28;20029;-68
2022/10/01 02:52:54;;;;;;;35.30;21.27;;;;;;;;;;5053617;28;20036;-66
2022/10/01 02:55:24;;;;;;;34.30;20.83;;;;;;;;;;5053475;28;20029;-65
2022/10/01 02:57:50;;;;;;;38.67;21.45;;;;;;;;;;5053642;28;20061;-69
2022/10/01 03:00:20;;;;;;;36.00;22.23;;;;;;;;;;5051673;28;20482;-69
2022/10/01 03:02:46;;;;;;;39.87;21.67;;;;;;;;;;5053071;28;20430;-68
2022/10/01 03:05:11;;;;;;;36.83;21.73;;;;;;;;;;5056766;28;20275;-68
2022/10/01 03:07:38;;;;;;;33.35;21.42;;;;;;;;;;5057172;28;20090;-69
2022/10/01 03:10:04;;;;;;;34.92;20.92;;;;;;;;;;5056814;28;20444;-69
2022/10/01 03:12:30;;;;;;;35.90;21.90;;;;;;;;;;5057040;28;20051;-70
2022/10/01 03:14:56;;;;;;;38.78;21.75;;;;;;;;;;5057265;28;20108;-70
2022/10/01 03:17:21;;;;;;;37.53;22.23;;;;;;;;;;5056686;28;20413;-71
2022/10/01 03:19:47;;;;;;;35.55;21.52;;;;;;;;;;5039090;28;20029;-69
2022/10/01 03:22:13;;;;;;;33.00;21.58;;;;;;;;;;5056789;28;20042;-70
2022/10/01 03:24:38;;;;;;;31.05;21.05;;;;;;;;;;5056567;28;20127;-70
2022/10/01 03:27:04;;;;;;;34.50;21.20;;;;;;;;;;5056341;28;20096;-70
2022/10/01 03:29:29;;;;;;;37.80;22.77;;;;;;;;;;5056509;28;20102;-69
2022/10/01 03:31:55;;;;;;;36.40;22.08;;;;;;;;;;5056523;28;20032;-67
2022/10/01 03:34:21;;;;;;;36.08;22.80;;;;;;;;;;5056505;28;20021;-68
2022/10/01 03:36:47;;;;;;;38.10;22.88;;;;;;;;;;5056483;28;20013;-68
2022/10/01 03:39:12;;;;;;;35.78;22.23;;;;;;;;;;5056587;28;20032;-69
2022/10/01 03:41:38;;;;;;;37.25;23.17;;;;;;;;;;5054926;28;20364;-68
2022/10/01 03:44:03;;;;;;;36.85;22.60;;;;;;;;;;5056395;28;20418;-68
2022/10/01 03:46:29;;;;;;;38.65;23.05;;;;;;;;;;5056082;28;20028;-69
2022/10/01 03:48:56;;;;;;;35.28;22.48;;;;;;;;;;5055984;28;20043;-68
2022/10/01 03:51:22;;;;;;;38.08;22.92;;;;;;;;;;5056256;28;20055;-66
2022/10/01 03:53:47;;;;;;;33.40;21.92;;;;;;;;;;5038696;28;20057;-69
2022/10/01 03:56:13;;;;;;;37.38;23.73;;;;;;;;;;5056068;28;20013;-68
2022/10/01 03:58:39;;;;;;;37.28;22.20;;;;;;;;;;5056031;28;20108;-67
2022/10/01 04:01:04;;;;;;;38.42;23.27;;;;;;;;;;5055642;28;20055;-67
2022/10/01 04:03:29;;;;;;;33.45;21.13;;;;;;;;;;5056092;28;20037;-66
2022/10/01 04:05:55;;;;;;;40.63;23.95;;;;;;;;;;5056160;28;20024;-68
2022/10/01 04:08:20;;;;;;;37.45;22.13;;;;;;;;;;5054420;28;20067;-68
2022/10/01 04:10:47;;;;;;;37.75;23.23;;;;;;;;;;5055578;28;20028;-70
2022/10/01 04:13:12;;;;;;;35.30;21.42;;;;;;;;;;5055654;28;20044;-69
2022/10/01 04:15:37;;;;;;;36.45;22.05;;;;;;;;;;5055805;28;20363;-69
2022/10/01 04:18:04;;;;;;;38.33;22.67;;;;;;;;;;5055783;28;20037;-69
2022/10/01 04:20:34;;;;;;;35.75;21.48;;;;;;;;;;5054826;28;20464;-68
2022/10/01 04:23:00;;;;;;;37.15;22.85;;;;;;;;;;5055317;28;20055;-68
2022/10/01 04:25:26;;;;;;;33.83;21.63;;;;;;;;;;5055800;28;20021;-68
2022/10/01 04:27:58;;;;;;;31.55;21.08;;;;;;;;;;5055541;28;20375;-66
2022/10/01 04:30:25;;;;;;;29.27;19.15;;;;;;;;;;5055489;28;20037;-69
2022/10/01 04:32:50;;;;;;;30.40;20.70;;;;;;;;;;5055338;28;20027;-68
2022/10/01 04:35:16;;;;;;;33.72;21.88;;;;;;;;;;5054991;28;20037;-67
2022/10/01 04:37:41;;;;;;;29.58;19.67;;;;;;;;;;5055517;28;20204;-68
2022/10/01 04:40:09;;;;;;;29.95;19.85;;;;;;;;;;5055301;28;20040;-67
2022/10/01 04:42:37;;;;;;;31.17;20.30;;;;;;;;;;5054911;28;20407;-68
2022/10/01 04:45:02;;;;;;;31.50;19.17;;;;;;;;;;5054221;28;20033;-67
2022/10/01 04:47:28;;;;;;;31.20;20.25;;;;;;;;;;5054448;28;20020;-69
2022/10/01 04:49:54;;;;;;;29.95;19.17;;;;;;;;;;5054442;28;20033;-68
2022/10/01 04:52:19;;;;;;;29.02;18.40;;;;;;;;;;5053133;28;20059;-68
2022/10/01 04:54:44;;;;;;;28.58;17.98;;;;;;;;;;5054083;28;20031;-68
2022/10/01 04:57:11;;;;;;;25.15;17.67;;;;;;;;;;5053128;28;20104;-68
2022/10/01 04:59:36;;;;;;;29.70;19.23;;;;;;;;;;5054417;28;20414;-69
2022/10/01 05:02:01;;;;;;;28.55;17.63;;;;;;;;;;5054145;28;20029;-69
2022/10/01 05:04:27;;;;;;;35.28;22.42;;;;;;;;;;5053828;28;20044;-69
2022/10/01 05:06:52;;;;;;;31.40;21.13;;;;;;;;;;5052579;28;20075;-70
2022/10/01 05:09:18;;;;;;;28.52;18.52;;;;;;;;;;5053990;28;20029;-70
2022/10/01 05:11:43;;;;;;;27.38;18.10;;;;;;;;;;5052759;28;20025;-69
2022/10/01 05:14:10;;;;;;;26.35;17.85;;;;;;;;;;5053544;28;20065;-69
2022/10/01 05:16:36;;;;;;;23.77;16.55;;;;;;;;;;5052877;28;20052;-69
2022/10/01 05:19:02;;;;;;;23.73;16.90;;;;;;;;;;5053706;28;20537;-69
2022/10/01 05:21:28;;;;;;;28.38;18.30;;;;;;;;;;5052481;28;20052;-69
2022/10/01 05:23:53;;;;;;;26.70;17.42;;;;;;;;;;5053837;28;20082;-70
2022/10/01 05:26:19;;;;;;;28.08;18.05;;;;;;;;;;5052140;28;20025;-69
2022/10/01 05:28:44;;;;;;;24.60;17.38;;;;;;;;;;5053344;28;20037;-69
2022/10/01 05:31:10;;;;;;;26.10;18.20;;;;;;;;;;5052834;28;20029;-69
2022/10/01 05:33:36;;;;;;;29.52;18.38;;;;;;;;;;5052831;28;20088;-70
2022/10/01 05:36:03;;;;;;;27.23;18.67;;;;;;;;;;5052877;28;20406;-69
2022/10/01 05:38:29;;;;;;;30.30;19.70;;;;;;;;;;5052807;28;20430;-69
2022/10/01 05:40:54;;;;;;;33.78;21.38;;;;;;;;;;5052726;28;20020;-69
2022/10/01 05:43:20;;;;;;;33.45;21.08;;;;;;;;;;5052668;28;20068;-70
2022/10/01 05:45:45;;;;;;;36.65;22.00;;;;;;;;;;5052652;28;20025;-70
2022/10/01 05:48:11;;;;;;;40.30;23.92;;;;;;;;;;5052563;28;20036;-69
2022/10/01 05:50:41;;;;;;;43.38;24.75;;;;;;;;;;5052517;28;20021;-69
2022/10/01 05:53:07;;;;;;;42.67;23.60;;;;;;;;;;5052551;28;20021;-70
2022/10/01 05:55:33;;;;;;;39.40;22.42;;;;;;;;;;5052526;28;20028;-69
2022/10/01 05:58:01;;;;;;;40.17;22.55;;;;;;;;;;5052486;28;20025;-70
2022/10/01 06:00:28;;;;;;;40.78;23.48;;;;;;;;;;5052429;28;20031;-69
2022/10/01 06:02:54;;;;;;;43.35;24.88;;;;;;;;;;5053398;28;20043;-70
2022/10/01 06:05:20;;;;;;;46.75;27.20;;;;;;;;;;5065755;22;20136;-69
2022/10/01 06:07:46;;;;;;;43.65;23.98;;;;;;;;;;5053495;28;20025;-70
2022/10/01 06:10:12;;;;;;;40.88;23.98;;;;;;;;;;5053377;28;20078;-67
2022/10/01 06:12:37;;;;;;;40.45;23.98;;;;;;;;;;5053720;28;20403;-67
2022/10/01 06:15:03;;;;;;;40.22;23.00;;;;;;;;;;5053456;28;20009;-67
2022/10/01 06:17:28;;;;;;;55.03;32.53;;;;;;;;;;5053395;28;20425;-68
2022/10/01 06:19:53;;;;;;;46.65;25.13;;;;;;;;;;5053433;28;20013;-67
2022/10/01 06:22:19;;;;;;;42.20;23.63;;;;;;;;;;5053379;28;20543;-68
2022/10/01 06:24:44;;;;;;;42.63;22.52;;;;;;;;;;5052180;28;20375;-68
2022/10/01 06:27:10;;;;;;;40.10;21.67;;;;;;;;;;5052013;28;20040;-68
2022/10/01 06:29:35;;;;;;;36.90;21.30;;;;;;;;;;5053377;28;20025;-68
2022/10/01 06:32:01;;;;;;;37.63;21.73;;;;;;;;;;5053207;28;20059;-68
2022/10/01 06:34:26;;;;;;;51.50;28.00;;;;;;;;;;5053316;28;20017;-66
2022/10/01 06:36:51;;;;;;;57.35;29.27;;;;;;;;;;5053304;28;20463;-68
2022/10/01 06:39:17;;;;;;;39.78;22.02;;;;;;;;;;5055236;28;20020;-67
2022/10/01 06:41:42;;;;;;;36.78;20.40;;;;;;;;;;5057405;28;20056;-66
2022/10/01 06:44:13;;;;;;;35.97;20.65;;;;;;;;;;5055851;28;20029;-67
2022/10/01 06:46:39;;;;;;;32.33;20.58;;;;;;;;;;5057043;28;20364;-66
2022/10/01 06:49:04;;;;;;;37.00;21.60;;;;;;;;;;5057026;28;20028;-68
2022/10/01 06:54:27;;;;;;;37.25;21.60;;;;;;;;;;5022807;28;20041;-67
2022/10/01 06:56:53;;;;;;;35.72;20.92;;;;;;;;;;5055617;28;20017;-66
2022/10/01 06:59:18;;;;;;;34.85;21.52;;;;;;;;;;5057034;28;20028;-68
2022/10/01 07:01:43;;;;;;;38.15;22.10;;;;;;;;;;5056784;28;20064;-66
2022/10/01 07:04:09;;;;;;;30.98;19.70;;;;;;;;;;5056679;28;20108;-68
2022/10/01 07:06:34;;;;;;;32.47;20.48;;;;;;;;;;5056529;28;20056;-66
2022/10/01 07:08:59;;;;;;;35.00;19.88;;;;;;;;;;5056618;28;20082;-68
2022/10/01 07:11:26;;;;;;;31.13;19.10;;;;;;;;;;5056542;28;20056;-67
2022/10/01 07:13:51;;;;;;;29.42;16.58;;;;;;;;;;5056517;28;20048;-69
2022/10/01 07:16:16;;;;;;;26.10;16.58;;;;;;;;;;5056585;28;20025;-70
2022/10/01 07:18:42;;;;;;;30.98;18.38;;;;;;;;;;5056545;28;20017;-69
2022/10/01 07:21:07;;;;;;;30.13;19.48;;;;;;;;;;5056535;28;20466;-69
2022/10/01 07:23:32;;;;;;;29.80;18.38;;;;;;;;;;5055124;28;20095;-70
2022/10/01 07:25:58;;;;;;;29.65;15.88;;;;;;;;;;5056345;28;20021;-70
2022/10/01 07:28:25;;;;;;;25.23;15.93;;;;;;;;;;5056279;28;20025;-69
2022/10/01 07:31:01;;;;;;;32.53;19.08;;;;;;;;;;5056291;28;20021;-69
2022/10/01 07:33:26;;;;;;;32.70;19.30;;;;;;;;;;5056330;28;20064;-69
2022/10/01 07:35:52;;;;;;;32.45;18.40;;;;;;;;;;5056282;28;20459;-69
2022/10/01 07:38:17;;;;;;;34.15;19.67;;;;;;;;;;5054835;28;20115;-70
2022/10/01 07:40:43;;;;;;;34.08;19.80;;;;;;;;;;5056053;28;20028;-70
2022/10/01 07:43:08;;;;;;;30.20;17.45;;;;;;;;;;5055939;28;20032;-70
2022/10/01 07:45:33;;;;;;;31.63;17.90;;;;;;;;;;5056047;28;20064;-69
2022/10/01 07:48:00;;;;;;;28.95;16.40;;;;;;;;;;5055891;28;20036;-70
2022/10/01 07:50:26;;;;;;;28.70;16.88;;;;;;;;;;5055132;28;20021;-70
2022/10/01 07:52:55;;;;;;;24.80;15.32;;;;;;;;;;5056043;28;20032;-70
2022/10/01 07:55:22;;;;;;;22.55;13.82;;;;;;;;;;5056156;28;20020;-69
2022/10/01 07:57:54;;;;;;;24.45;15.23;;;;;;;;;;5056197;28;20051;-69
2022/10/01 08:00:20;;;;;;;26.90;15.48;;;;;;;;;;5056099;28;20479;-69
2022/10/01 08:02:47;;;;;;;26.77;15.70;;;;;;;;;;5054946;28;20494;-69
2022/10/01 08:05:19;;;;;;;26.67;16.65;;;;;;;;;;5054674;28;20059;-70
2022/10/01 08:07:45;;;;;;;23.73;15.20;;;;;;;;;;5036925;28;20078;-70
2022/10/01 08:10:11;;;;;;;24.55;15.77;;;;;;;;;;5054732;28;20047;-68
2022/10/01 08:12:36;;;;;;;23.60;14.35;;;;;;;;;;5055535;28;20509;-68
2022/10/01 08:15:02;;;;;;;25.65;15.35;;;;;;;;;;5056056;28;20515;-69
2022/10/01 08:17:27;;;;;;;24.10;14.50;;;;;;;;;;5056146;28;20037;-67
2022/10/01 08:19:52;;;;;;;22.30;15.23;;;;;;;;;;5055419;28;20103;-67
2022/10/01 08:22:18;;;;;;;22.85;14.82;;;;;;;;;;5055907;28;20108;-69
2022/10/01 08:24:43;;;;;;;24.23;15.38;;;;;;;;;;5055633;28;20455;-68
2022/10/01 08:27:09;;;;;;;23.50;14.52;;;;;;;;;;5037971;28;20116;-69
2022/10/01 08:29:34;;;;;;;21.38;13.23;;;;;;;;;;5055293;28;20024;-68
2022/10/01 08:31:59;;;;;;;21.30;13.60;;;;;;;;;;5055097;28;20047;-68
2022/10/01 08:34:25;;;;;;;24.48;14.40;;;;;;;;;;5053793;28;20021;-70
2022/10/01 08:36:50;;;;;;;23.70;14.15;;;;;;;;;;5054912;28;20078;-70
2022/10/01 08:39:16;;;;;;;23.30;14.32;;;;;;;;;;5054953;28;20021;-70
2022/10/01 08:41:59;;;;;;;21.30;14.38;;;;;;;;;;5054951;28;20031;-70
2022/10/01 08:44:29;;;;;;;23.52;14.25;;;;;;;;;;5054882;28;20033;-70
2022/10/01 08:46:56;;;;;;;22.52;14.13;;;;;;;;;;5054833;28;20032;-70
2022/10/01 08:49:25;;;;;;;22.90;14.27;;;;;;;;;;5054719;28;20036;-70
2022/10/01 08:51:53;;;;;;;20.02;12.77;;;;;;;;;;5054604;28;20383;-70
2022/10/01 08:54:18;;;;;;;23.42;12.85;;;;;;;;;;5054688;28;20025;-70
2022/10/01 08:56:45;;;;;;;21.25;13.45;;;;;;;;;;5055086;28;20021;-70
2022/10/01 08:59:16;;;;;;;19.17;11.82;;;;;;;;;;5054865;28;20021;-69
2022/10/01 09:01:42;;;;;;;20.70;13.48;;;;;;;;;;5053741;28;20471;-70
2022/10/01 09:04:07;;;;;;;20.38;13.48;;;;;;;;;;5053655;28;20045;-70
2022/10/01 09:06:33;;;;;;;38.85;23.55;;;;;;;;;;5054531;28;20044;-69
2022/10/01 09:09:10;;;;;;;24.35;16.30;;;;;;;;;;5054791;28;20037;-70
2022/10/01 09:11:39;;;;;;;17.60;12.35;;;;;;;;;;5036831;28;20044;-70
2022/10/01 09:14:14;;;;;;;17.63;13.13;;;;;;;;;;5054512;28;20024;-70
2022/10/01 09:16:39;;;;;;;15.30;11.23;;;;;;;;;;5054746;28;20032;-69
2022/10/01 09:19:16;;;;;;;18.00;12.73;;;;;;;;;;5054806;28;20067;-70
2022/10/01 09:21:46;;;;;;;20.67;12.48;;;;;;;;;;5054869;28;20032;-70
2022/10/01 09:24:19;;;;;;;16.42;10.82;;;;;;;;;;5053080;28;20563;-69
2022/10/01 09:26:49;;;;;;;16.67;11.50;;;;;;;;;;5054167;28;20057;-70
2022/10/01 09:29:16;;;;;;;12.52;8.52;;;;;;;;;;5053973;28;20032;-70
2022/10/01 09:31:47;;;;;;;13.93;10.98;;;;;;;;;;5053791;28;20032;-70
2022/10/01 09:34:12;;;;;;;15.20;11.68;;;;;;;;;;5054025;28;20033;-69
2022/10/01 09:36:57;;;;;;;18.05;11.40;;;;;;;;;;5053887;28;20028;-69
2022/10/01 09:39:25;;;;;;;15.93;10.13;;;;;;;;;;5053979;28;20025;-70
2022/10/01 09:41:51;;;;;;;18.02;12.15;;;;;;;;;;5053813;28;20017;-70
2022/10/01 09:44:20;;;;;;;15.70;11.20;;;;;;;;;;5053937;28;20463;-70
2022/10/01 09:46:45;;;;;;;19.02;12.27;;;;;;;;;;5053810;28;20455;-69
2022/10/01 09:49:26;;;;;;;16.58;11.18;;;;;;;;;;5053700;28;20028;-70
2022/10/01 09:51:53;;;;;;;14.55;10.27;;;;;;;;;;5053859;28;20037;-69
2022/10/01 09:54:31;;;;;;;13.65;10.07;;;;;;;;;;5053600;28;20028;-68
2022/10/01 09:57:06;;;;;;;13.68;10.30;;;;;;;;;;5053695;28;20025;-69
2022/10/01 10:00:00;;;;;;;14.70;10.02;;;;;;;;;;5053532;28;20460;-68
2022/10/01 10:02:36;;;;;;;16.40;10.23;;;;;;;;;;5019331;28;20044;-68
2022/10/01 10:05:12;;;;;;;12.68;8.18;;;;;;;;;;5053341;28;20025;-66
2022/10/01 10:07:41;;;;;;;11.15;8.40;;;;;;;;;;5053591;28;20505;-69
2022/10/01 10:10:20;;;;;;;13.43;9.60;;;;;;;;;;5053732;28;20028;-68
2022/10/01 10:12:46;;;;;;;12.45;8.32;;;;;;;;;;5055944;28;20029;-68
2022/10/01 10:15:19;;;;;;;10.63;7.07;;;;;;;;;;5060511;28;20363;-67
2022/10/01 10:17:50;;;;;;;14.27;9.68;;;;;;;;;;5059238;28;20059;-68
2022/10/01 10:20:27;;;;;;;12.68;8.93;;;;;;;;;;5060424;28;20036;-67
2022/10/01 10:22:53;;;;;;;16.67;9.95;;;;;;;;;;5060914;28;20416;-68
2022/10/01 10:25:21;;;;;;;12.82;9.48;;;;;;;;;;5060151;28;20109;-67
2022/10/01 10:27:54;;;;;;;14.45;10.00;;;;;;;;;;5060373;28;20414;-67
2022/10/01 10:30:20;;;;;;;14.00;9.48;;;;;;;;;;5060426;28;20025;-67
2022/10/01 10:32:46;;;;;;;10.93;8.15;;;;;;;;;;5060288;28;20028;-68
2022/10/01 10:35:38;;;;;;;14.90;10.02;;;;;;;;;;5059906;28;20039;-68
2022/10/01 10:38:04;;;;;;;13.40;8.63;;;;;;;;;;5055561;28;20044;-68
2022/10/01 10:40:43;;;;;;;11.82;7.85;;;;;;;;;;5060431;28;20029;-68
2022/10/01 10:43:17;;;;;;;11.98;9.00;;;;;;;;;;5060010;28;20024;-68
2022/10/01 10:45:45;;;;;;;12.57;9.13;;;;;;;;;;5060363;28;20071;-68
2022/10/01 10:48:15;;;;;;;13.60;8.48;;;;;;;;;;5060006;28;20427;-69
2022/10/01 10:50:42;;;;;;;12.40;8.27;;;;;;;;;;5060295;28;20171;-68
2022/10/01 10:53:26;;;;;;;15.35;12.10;;;;;;;;;;5060272;28;20052;-67
2022/10/01 10:56:02;;;;;;;16.00;9.98;;;;;;;;;;5059354;28;20538;-68
2022/10/01 10:58:29;;;;;;;15.57;10.20;;;;;;;;;;5060217;28;20041;-68
2022/10/01 11:00:56;;;;;;;14.10;10.02;;;;;;;;;;5060331;28;20104;-68
2022/10/01 11:03:23;;;;;;;13.85;10.30;;;;;;;;;;5060114;28;20039;-67
2022/10/01 11:05:50;;;;;;;13.77;7.82;;;;;;;;;;5059899;28;20056;-69
2022/10/01 11:08:20;;;;;;;10.95;7.85;;;;;;;;;;5060301;28;20036;-69
2022/10/01 11:10:58;;;;;;;13.18;7.47;;;;;;;;;;5042124;28;20029;-68
2022/10/01 11:13:33;;;;;;;14.13;8.13;;;;;;;;;;5060114;28;20033;-68
2022/10/01 11:16:11;;;;;;;13.95;8.27;;;;;;;;;;5060274;28;20029;-69
2022/10/01 11:18:53;;;;;;;18.48;10.80;;;;;;;;;;5060055;28;20052;-67
2022/10/01 11:21:19;;;;;;;13.50;7.18;;;;;;;;;;5059879;28;20403;-69
2022/10/01 11:24:02;;;;;;;17.35;9.48;;;;;;;;;;5059465;28;20028;-69
2022/10/01 11:26:28;;;;;;;14.43;9.38;;;;;;;;;;5056856;28;20104;-68
2022/10/01 11:29:13;;;;;;;14.02;6.93;;;;;;;;;;5056585;28;20053;-68
2022/10/01 11:31:57;;;;;;;12.98;7.68;;;;;;;;;;5056533;28;20389;-69
2022/10/01 11:34:23;;;;;;;13.65;8.90;;;;;;;;;;5056067;28;20364;-70
2022/10/01 11:36:57;;;;;;;16.73;9.80;;;;;;;;;;5054803;28;20027;-69
2022/10/01 11:39:25;;;;;;;11.05;7.47;;;;;;;;;;5053343;28;20119;-68
2022/10/01 11:41:53;;;;;;;12.88;6.75;;;;;;;;;;5053957;28;20025;-68
2022/10/01 11:44:24;;;;;;;10.85;6.68;;;;;;;;;;5053845;28;20556;-69
2022/10/01 11:47:04;;;;;;;11.63;7.18;;;;;;;;;;5054327;28;20090;-68
2022/10/01 11:49:33;;;;;;;14.90;9.02;;;;;;;;;;5054461;28;20037;-69
2022/10/01 11:51:58;;;;;;;14.10;9.68;;;;;;;;;;5054646;28;20036;-69
2022/10/01 11:54:25;;;;;;;11.00;7.72;;;;;;;;;;5053846;28;20111;-67
2022/10/01 11:59:43;;;;;;;11.52;8.02;;;;;;;;;;5054650;28;20055;-68
2022/10/01 12:02:25;;;;;;;11.48;9.07;;;;;;;;;;5036703;28;20033;-68
2022/10/01 12:04:56;;;;;;;13.20;8.85;;;;;;;;;;5054531;28;20024;-69
2022/10/01 12:07:21;;;;;;;;;;;;;;;;;;5054471;28;20072;-70
2022/10/01 12:09:46;;;;;;;10.23;6.70;;;;;;;;;;5054214;28;20342;-69
2022/10/01 12:12:19;;;;;;;9.52;7.78;;;;;;;;;;5054341;28;20714;-69
2022/10/01 12:14:51;;;;;;;9.93;7.00;;;;;;;;;;5019935;28;20070;-69
2022/10/01 12:17:51;;;;;;;11.43;6.95;;;;;;;;;;5054226;28;20025;-69
2022/10/01 12:20:17;;;;;;;;;;;;;;;;;;4973596;28;20049;-69
2022/10/01 12:22:43;;;;;;;12.35;7.75;;;;;;;;;;5023692;28;19905;-69
2022/10/01 12:25:12;;;;;;;11.02;7.18;;;;;;;;;;5054068;28;20079;-70
2022/10/01 12:27:43;;;;;;;16.80;9.40;;;;;;;;;;5054266;28;20050;-70
2022/10/01 12:30:22;;;;;;;11.52;7.63;;;;;;;;;;5053941;28;20494;-70
2022/10/01 12:32:47;;;;;;;8.73;6.80;;;;;;;;;;5053926;28;20033;-72
2022/10/01 12:35:39;;;;;;;16.40;10.32;;;;;;;;;;5053879;28;20021;-71
2022/10/01 12:38:05;;;;;;;9.82;7.20;;;;;;;;;;5015157;28;20087;-69
2022/10/01 12:40:36;;;;;;;11.77;7.90;;;;;;;;;;5053815;28;20048;-70
2022/10/01 12:43:12;;;;;;;9.07;6.55;;;;;;;;;;5035939;28;20458;-70
2022/10/01 12:45:50;;;;;;;15.68;10.30;;;;;;;;;;5053794;28;20025;-71
2022/10/01 12:48:34;;;;;;;11.32;7.03;;;;;;;;;;5053661;28;20032;-70
2022/10/01 12:50:59;;;;;;;10.00;6.95;;;;;;;;;;5053581;28;20121;-70
2022/10/01 12:53:31;;;;;;;11.18;6.32;;;;;;;;;;5053349;28;20099;-71
2022/10/01 12:56:02;;;;;;;14.02;7.43;;;;;;;;;;5053583;28;20029;-71
2022/10/01 12:58:27;;;;;;;11.35;7.05;;;;;;;;;;5053737;28;20401;-71
2022/10/01 13:00:59;;;;;;;12.85;7.32;;;;;;;;;;5053477;28;20017;-71
2022/10/01 13:03:29;;;;;;;13.90;8.32;;;;;;;;;;5035674;28;20110;-71
2022/10/01 13:06:28;;;;;;;12.25;8.23;;;;;;;;;;5052928;28;20045;-70
2022/10/01 13:09:01;;;;;;;13.23;7.32;;;;;;;;;;4992466;28;20049;-71
2022/10/01 13:11:39;;;;;;;7.80;5.78;;;;;;;;;;5052901;28;20037;-70
2022/10/01 13:14:06;;;;;;;8.40;6.13;;;;;;;;;;5053235;28;20421;-70
2022/10/01 13:16:39;;;;;;;8.40;5.00;;;;;;;;;;5053123;28;20013;-71
2022/10/01 13:19:05;;;;;;;6.00;4.40;;;;;;;;;;5051918;28;20063;-71
2022/10/01 13:21:48;;;;;;;7.50;6.00;;;;;;;;;;5053109;28;20475;-69
2022/10/01 13:24:20;;;;;;;7.93;5.55;;;;;;;;;;5052846;28;20036;-69
2022/10/01 13:26:56;;;;;;;8.10;6.40;;;;;;;;;;5053107;28;20033;-71
2022/10/01 13:29:25;;;;;;;11.15;6.60;;;;;;;;;;5053275;28;20036;-71
2022/10/01 13:32:00;;;;;;;14.65;7.97;;;;;;;;;;5052882;28;20029;-72
2022/10/01 13:34:44;;;;;;;10.48;7.80;;;;;;;;;;5052898;28;20072;-71
2022/10/01 13:37:17;;;;;;;13.27;10.40;;;;;;;;;;5035024;28;20029;-71
2022/10/01 13:39:44;;;;;;;17.73;10.23;;;;;;;;;;5052281;28;20032;-71
2022/10/01 13:42:13;;;;;;;15.13;8.48;;;;;;;;;;5051188;28;20024;-72
2022/10/01 13:44:40;;;;;;;13.73;7.88;;;;;;;;;;5034856;28;20131;-71
2022/10/01 13:47:06;;;;;;;16.05;8.80;;;;;;;;;;5052345;28;20017;-71
2022/10/01 13:49:33;;;;;;;12.25;6.40;;;;;;;;;;5052105;28;20040;-72
2022/10/01 13:51:58;;;;;;;8.80;6.53;;;;;;;;;;5052568;28;20021;-72
2022/10/01 13:54:45;;;;;;;10.13;7.78;;;;;;;;;;5052582;28;20031;-72
2022/10/01 13:57:41;;;;;;;18.25;13.52;;;;;;;;;;5034570;28;20021;-72
2022/10/01 14:00:18;;;;;;;13.52;7.38;;;;;;;;;;5014437;28;20033;-71
2022/10/01 14:02:56;;;;;;;9.43;6.50;;;;;;;;;;5052452;28;20025;-71
2022/10/01 14:05:33;;;;;;;13.38;8.68;;;;;;;;;;5052256;28;20044;-72
2022/10/01 14:08:17;;;;;;;12.73;8.07;;;;;;;;;;5052354;28;20036;-72
2022/10/01 14:16:18;;;;;;;7.65;6.07;;;;;;;;;;5021534;28;20033;-71
2022/10/01 14:18:46;;;;;;;9.48;6.57;;;;;;;;;;5053092;28;20467;-71
2022/10/01 14:21:15;;;;;;;11.40;8.55;;;;;;;;;;5034372;28;20044;-71
2022/10/01 14:23:51;;;;;;;10.55;7.80;;;;;;;;;;5051249;28;20032;-71
2022/10/01 14:26:32;;;;;;;12.10;7.45;;;;;;;;;;5052024;28;20040;-71
2022/10/01 14:28:57;;;;;;;;;;;;;;;;;;5052655;28;20052;-70
2022/10/01 14:31:22;;;;;;;12.07;8.02;;;;;;;;;;5052366;28;20365;-71
2022/10/01 14:34:06;;;;;;;11.95;8.32;;;;;;;;;;5052386;28;20110;-71
2022/10/01 14:36:33;;;;;;;14.00;10.10;;;;;;;;;;5052306;28;20364;-70
2022/10/01 14:39:12;;;;;;;10.90;7.13;;;;;;;;;;5052200;28;20555;-70
2022/10/01 14:41:37;;;;;;;14.77;8.63;;;;;;;;;;5052135;28;20047;-71
2022/10/01 14:44:16;;;;;;;10.57;7.68;;;;;;;;;;5052022;28;20025;-71